Time;durP1;ratioP1;P1;durP2;ratioP2;P2;SDS_P1;SDS_P2;PMS_P1;PMS_P2;Temp;Humidity;BMP_temperature;BMP_pressure;BME280_temperature;BME280_humidity;BME280_pressure;Samples;Min_cycle;Max_cycle;Signal;HPM_P1;HPM_P2
2023/04/26 00:02:44;;;;;;;3.00;1.70;;;15.10;66.00;;;;;;10363457;28;20057;-60
2023/04/26 00:07:45;;;;;;;2.63;1.67;;;15.10;66.00;;;;;;10371171;28;20034;-60
2023/04/26 00:12:46;;;;;;;3.30;1.92;;;15.00;65.90;;;;;;10370778;28;20042;-60
2023/04/26 00:17:47;;;;;;;2.83;1.50;;;15.00;65.70;;;;;;10370724;28;20080;-60
2023/04/26 00:22:48;;;;;;;3.08;1.67;;;15.00;65.80;;;;;;10370330;28;20088;-60
2023/04/26 00:27:48;;;;;;;3.78;1.60;;;15.00;65.70;;;;;;10379123;28;20109;-60
2023/04/26 00:32:49;;;;;;;3.45;1.73;;;15.00;65.70;;;;;;10389394;28;20109;-60
2023/04/26 00:37:50;;;;;;;2.22;1.38;;;15.00;65.70;;;;;;10369869;28;20028;-60
2023/04/26 00:42:59;;;;;;;2.90;1.73;;;14.90;65.60;;;;;;10369484;28;20030;-60
2023/04/26 00:48:02;;;;;;;4.13;2.17;;;14.90;65.50;;;;;;10396590;28;20473;-60
2023/04/26 00:53:03;;;;;;;3.50;2.00;;;14.90;65.50;;;;;;10375400;28;20105;-61
2023/04/26 00:58:03;;;;;;;3.17;2.00;;;14.90;65.40;;;;;;10367623;28;20026;-61
2023/04/26 01:03:04;;;;;;;3.38;1.42;;;14.90;65.40;;;;;;10367243;28;20117;-60
2023/04/26 01:08:05;;;;;;;4.28;1.83;;;14.90;65.40;;;;;;10380147;28;20036;-59
2023/04/26 01:13:07;;;;;;;4.28;2.28;;;14.90;65.40;;;;;;10363935;28;20053;-60
2023/04/26 01:18:07;;;;;;;7.57;2.42;;;14.90;65.30;;;;;;10367573;28;20014;-60
2023/04/26 01:23:10;;;;;;;2.67;1.38;;;14.90;65.30;;;;;;10366804;28;20533;-60
2023/04/26 01:28:11;;;;;;;3.55;1.55;;;14.90;65.30;;;;;;10379648;28;20021;-60
2023/04/26 01:33:12;;;;;;;3.80;1.80;;;14.80;65.20;;;;;;10383556;28;20411;-59
2023/04/26 01:38:13;;;;;;;4.53;2.10;;;14.80;65.10;;;;;;10367085;28;20026;-60
2023/04/26 01:43:14;;;;;;;3.72;1.77;;;14.80;65.10;;;;;;10367100;28;20029;-58
2023/04/26 01:48:15;;;;;;;4.40;1.88;;;14.80;65.10;;;;;;10378764;28;20030;-61
2023/04/26 01:53:16;;;;;;;5.50;2.53;;;14.80;65.00;;;;;;10365327;28;20033;-61
2023/04/26 01:58:17;;;;;;;2.42;1.75;;;14.80;65.00;;;;;;10379245;28;20536;-61
2023/04/26 02:03:17;;;;;;;3.13;1.98;;;14.80;64.90;;;;;;10366563;28;20188;-60
2023/04/26 02:08:18;;;;;;;3.63;1.50;;;14.80;64.90;;;;;;10366290;28;20117;-60
2023/04/26 02:13:19;;;;;;;3.47;1.65;;;14.70;64.90;;;;;;10365922;28;20122;-60
2023/04/26 02:18:21;;;;;;;3.17;1.80;;;14.70;64.80;;;;;;10366216;28;20026;-60
2023/04/26 02:23:23;;;;;;;2.50;1.65;;;14.70;64.80;;;;;;10368181;28;20053;-59
2023/04/26 02:28:23;;;;;;;3.92;1.92;;;14.70;64.80;;;;;;10364966;28;20125;-60
2023/04/26 02:33:24;;;;;;;2.65;1.52;;;14.70;64.80;;;;;;10367701;28;20364;-60
2023/04/26 02:38:25;;;;;;;3.00;1.95;;;14.70;64.70;;;;;;10376680;28;20087;-61
2023/04/26 02:43:26;;;;;;;3.15;2.08;;;14.70;64.70;;;;;;10364828;28;20156;-61
2023/04/26 02:48:26;;;;;;;3.28;1.67;;;14.70;64.70;;;;;;10363651;28;20045;-61
2023/04/26 02:53:27;;;;;;;3.08;1.98;;;14.70;64.60;;;;;;10365112;28;20544;-61
2023/04/26 02:58:28;;;;;;;2.83;1.60;;;14.60;64.50;;;;;;10364417;28;20104;-61
2023/04/26 03:03:29;;;;;;;2.47;1.40;;;14.60;64.50;;;;;;10363242;28;20124;-60
2023/04/26 03:08:30;;;;;;;2.92;1.98;;;14.60;64.50;;;;;;10375773;28;20080;-61
2023/04/26 03:13:31;;;;;;;3.33;1.60;;;14.60;64.40;;;;;;10362718;28;20018;-60
2023/04/26 03:18:31;;;;;;;5.20;1.90;;;14.60;64.90;;;;;;10363016;28;20532;-61
2023/04/26 03:23:33;;;;;;;3.30;1.60;;;14.80;64.10;;;;;;10362302;28;20026;-60
2023/04/26 03:28:33;;;;;;;2.90;1.35;;;15.00;64.10;;;;;;10377234;28;20463;-60
2023/04/26 03:33:34;;;;;;;2.63;1.60;;;15.20;63.40;;;;;;10375419;28;20053;-60
2023/04/26 03:38:34;;;;;;;2.90;1.60;;;15.40;62.90;;;;;;10366569;28;20129;-61
2023/04/26 03:43:35;;;;;;;1.95;1.40;;;15.70;61.30;;;;;;10372234;28;20125;-61
2023/04/26 03:48:36;;;;;;;3.63;1.40;;;16.10;60.00;;;;;;10384600;28;20520;-61
2023/04/26 03:53:36;;;;;;;2.17;1.17;;;16.30;59.20;;;;;;10373522;28;20280;-61
2023/04/26 03:58:37;;;;;;;3.60;1.40;;;16.60;58.50;;;;;;10370221;28;20105;-61
2023/04/26 04:03:38;;;;;;;5.15;1.45;;;16.70;58.20;;;;;;10370250;28;20175;-60
2023/04/26 04:08:38;;;;;;;2.38;1.30;;;16.90;57.90;;;;;;10366688;28;20583;-61
2023/04/26 04:13:39;;;;;;;2.53;1.25;;;16.90;57.80;;;;;;10370887;28;20125;-60
2023/04/26 04:18:40;;;;;;;3.38;1.30;;;16.90;57.90;;;;;;10369440;28;20097;-59
2023/04/26 04:23:43;;;;;;;4.20;2.13;;;16.80;58.10;;;;;;10370545;28;20018;-61
2023/04/26 04:28:45;;;;;;;3.22;1.67;;;16.70;58.40;;;;;;10386884;28;20608;-61
2023/04/26 04:33:47;;;;;;;1.90;1.13;;;16.60;58.80;;;;;;10381012;28;20778;-59
2023/04/26 04:38:48;;;;;;;2.67;1.40;;;16.40;59.30;;;;;;10371859;28;20021;-60
2023/04/26 04:43:49;;;;;;;4.07;1.60;;;16.30;59.50;;;;;;10382507;28;20014;-56
2023/04/26 04:48:50;;;;;;;4.15;1.60;;;16.40;59.70;;;;;;10386125;28;20025;-59
2023/04/26 04:53:51;;;;;;;6.40;1.92;;;16.40;59.80;;;;;;10403357;28;20049;-60
2023/04/26 04:58:52;;;;;;;5.95;2.13;;;16.40;59.90;;;;;;10382766;28;20020;-60
2023/04/26 05:03:52;;;;;;;4.63;1.63;;;16.40;59.90;;;;;;10372676;28;20633;-59
2023/04/26 05:08:55;;;;;;;12.05;2.70;;;16.50;60.10;;;;;;10396522;28;20034;-58
2023/04/26 05:13:56;;;;;;;16.55;2.70;;;16.20;62.50;;;;;;10379153;28;20010;-59
2023/04/26 05:18:56;;;;;;;6.57;1.70;;;16.20;61.10;;;;;;10372472;28;20069;-59
2023/04/26 05:23:57;;;;;;;4.78;2.08;;;16.20;61.90;;;;;;10390053;28;20147;-58
2023/04/26 05:28:58;;;;;;;3.80;1.92;;;16.20;61.50;;;;;;10396064;28;20396;-59
2023/04/26 05:33:58;;;;;;;7.93;2.10;;;16.10;62.00;;;;;;10386769;28;20589;-58
2023/04/26 05:38:59;;;;;;;10.13;1.90;;;16.10;61.60;;;;;;10386183;28;20109;-59
2023/04/26 05:44:00;;;;;;;6.82;2.42;;;16.20;62.60;;;;;;10387097;28;20121;-58
2023/04/26 05:49:00;;;;;;;8.32;1.80;;;16.10;62.20;;;;;;10407661;28;20072;-58
2023/04/26 05:54:01;;;;;;;6.65;2.00;;;16.00;62.20;;;;;;10398529;28;20026;-59
2023/04/26 05:59:02;;;;;;;8.93;2.40;;;16.10;62.50;;;;;;10399235;28;20101;-60
2023/04/26 06:04:02;;;;;;;7.20;2.28;;;16.20;62.20;;;;;;10385432;28;20045;-59
2023/04/26 06:09:03;;;;;;;10.10;2.25;;;16.00;63.20;;;;;;10377617;28;20099;-59
2023/04/26 06:14:04;;;;;;;7.72;3.22;;;16.30;64.10;;;;;;10373413;28;20033;-57
2023/04/26 06:19:04;;;;;;;7.45;2.00;;;16.40;65.20;;;;;;10366010;28;20101;-58
2023/04/26 06:24:06;;;;;;;13.23;2.78;;;16.40;65.60;;;;;;10377794;28;20424;-57
2023/04/26 06:29:06;;;;;;;15.27;2.83;;;16.40;66.40;;;;;;10382960;28;20432;-58
2023/04/26 06:34:07;;;;;;;8.68;2.30;;;16.20;65.40;;;;;;10372871;28;20071;-58
2023/04/26 06:39:08;;;;;;;10.15;2.40;;;16.10;65.40;;;;;;10376686;28;20101;-58
2023/04/26 06:44:08;;;;;;;9.88;2.65;;;15.90;65.40;;;;;;10380277;28;20604;-58
2023/04/26 06:49:10;;;;;;;6.13;1.60;;;15.80;65.40;;;;;;10381614;28;20056;-58
2023/04/26 06:54:11;;;;;;;5.13;1.60;;;15.80;65.50;;;;;;10383278;28;20022;-58
2023/04/26 06:59:12;;;;;;;8.48;2.42;;;15.70;65.40;;;;;;10379913;28;20453;-58
2023/04/26 07:04:14;;;;;;;8.05;2.13;;;15.70;65.40;;;;;;10383022;28;20076;-58
2023/04/26 07:09:14;;;;;;;5.18;1.50;;;15.70;65.10;;;;;;10390419;28;20112;-58
2023/04/26 07:14:16;;;;;;;5.80;1.33;;;15.70;64.90;;;;;;10398802;28;20465;-57
2023/04/26 07:19:16;;;;;;;6.50;2.25;;;15.70;64.80;;;;;;10404865;28;20033;-58
2023/04/26 07:24:17;;;;;;;6.20;1.90;;;15.80;64.50;;;;;;10384186;28;20466;-58
2023/04/26 07:29:18;;;;;;;6.05;1.58;;;15.80;64.40;;;;;;10372069;28;20116;-57
2023/04/26 07:34:19;;;;;;;10.80;2.45;;;15.80;64.30;;;;;;10389915;28;20017;-58
2023/04/26 07:39:19;;;;;;;8.70;2.30;;;15.90;64.00;;;;;;10404315;28;20025;-58
2023/04/26 07:44:21;;;;;;;3.83;1.70;;;15.90;63.80;;;;;;10384751;28;20101;-58
2023/04/26 07:49:21;;;;;;;4.18;1.73;;;15.90;63.80;;;;;;10389951;28;20029;-58
2023/04/26 07:54:22;;;;;;;5.15;1.88;;;16.00;63.60;;;;;;10363552;28;20424;-58
2023/04/26 07:59:23;;;;;;;4.55;1.20;;;16.00;63.50;;;;;;10398039;28;20637;-58
2023/04/26 08:04:32;;;;;;;6.00;1.45;;;16.00;63.50;;;;;;10394936;28;20053;-60
2023/04/26 08:09:33;;;;;;;11.73;2.17;;;15.90;63.70;;;;;;10402875;28;20029;-58
2023/04/26 08:14:34;;;;;;;7.25;1.92;;;15.90;64.40;;;;;;10402643;28;20644;-58
2023/04/26 08:19:35;;;;;;;7.15;1.63;;;15.90;65.50;;;;;;10389306;28;20025;-59
2023/04/26 08:24:36;;;;;;;9.55;1.80;;;16.00;65.60;;;;;;10394797;28;20424;-58
2023/04/26 08:29:36;;;;;;;11.43;2.30;;;15.90;65.60;;;;;;10370227;28;20409;-57
2023/04/26 08:34:37;;;;;;;9.85;1.90;;;16.00;66.10;;;;;;10391023;28;20057;-57
2023/04/26 08:39:37;;;;;;;9.15;2.38;;;16.00;66.10;;;;;;10372778;28;20581;-59
2023/04/26 08:44:41;;;;;;;12.32;2.33;;;16.00;66.30;;;;;;10380713;28;20065;-58
2023/04/26 08:49:43;;;;;;;14.25;3.25;;;15.90;65.80;;;;;;10367892;28;20034;-57
2023/04/26 08:54:45;;;;;;;13.38;3.17;;;15.90;66.40;;;;;;10368032;28;20105;-58
2023/04/26 08:59:47;;;;;;;10.73;3.10;;;15.90;66.50;;;;;;10378079;28;20093;-57
2023/04/26 09:04:49;;;;;;;11.95;2.95;;;15.90;66.70;;;;;;10392300;28;20099;-60
2023/04/26 09:09:50;;;;;;;12.82;3.40;;;15.90;66.80;;;;;;10377337;28;20034;-61
2023/04/26 09:14:51;;;;;;;18.23;3.20;;;15.90;67.00;;;;;;10385111;28;20030;-58
2023/04/26 09:19:52;;;;;;;15.88;2.75;;;15.90;67.00;;;;;;10376540;28;20049;-58
2023/04/26 09:24:53;;;;;;;17.20;2.80;;;15.90;67.00;;;;;;10373197;28;20044;-58
2023/04/26 09:30:00;;;;;;;16.92;4.35;;;15.70;66.80;;;;;;10393843;28;20053;-56
2023/04/26 09:35:00;;;;;;;15.35;3.67;;;15.70;67.40;;;;;;10383825;28;20108;-58
2023/04/26 09:40:01;;;;;;;13.45;3.17;;;15.80;67.50;;;;;;10387322;28;20426;-58
2023/04/26 09:45:06;;;;;;;12.63;4.20;;;16.00;67.70;;;;;;10377571;28;20985;-57
2023/04/26 09:50:07;;;;;;;19.17;4.13;;;16.00;68.90;;;;;;10364982;28;20109;-58
2023/04/26 09:55:08;;;;;;;16.10;4.18;;;16.00;70.30;;;;;;10364765;28;20022;-57
2023/04/26 10:00:11;;;;;;;19.17;3.67;;;16.00;71.90;;;;;;10364226;28;20401;-57
2023/04/26 10:05:12;;;;;;;17.50;4.90;;;16.20;68.30;;;;;;10363658;28;20053;-55
2023/04/26 10:10:13;;;;;;;13.77;5.97;;;16.30;71.40;;;;;;10362842;28;20500;-57
2023/04/26 10:15:14;;;;;;;14.88;4.25;;;16.50;71.70;;;;;;10373451;28;20029;-55
2023/04/26 10:20:17;;;;;;;11.13;4.32;;;16.40;71.40;;;;;;10366315;28;20029;-56
2023/04/26 10:25:18;;;;;;;15.60;4.45;;;16.40;71.80;;;;;;10364017;28;20018;-59
2023/04/26 10:30:21;;;;;;;17.70;4.55;;;16.40;73.00;;;;;;10385255;28;20034;-57
2023/04/26 10:35:27;;;;;;;19.33;5.20;;;16.30;72.50;;;;;;10384635;28;20038;-56
2023/04/26 10:40:38;;;;;;;13.73;4.93;;;16.20;72.70;;;;;;10370722;28;20161;-58
2023/04/26 10:45:40;;;;;;;15.73;5.85;;;16.00;72.80;;;;;;10360445;28;20091;-56
2023/04/26 10:51:04;;;;;;;11.05;4.85;;;16.10;71.60;;;;;;10375528;28;20048;-58
2023/04/26 10:56:05;;;;;;;16.92;4.68;;;16.10;71.50;;;;;;10364431;28;20026;-58
2023/04/26 11:01:17;;;;;;;18.05;4.30;;;16.00;70.80;;;;;;10364029;28;20076;-57
2023/04/26 11:06:17;;;;;;;13.75;4.68;;;15.90;69.40;;;;;;10363957;28;20067;-58
2023/04/26 11:11:25;;;;;;;16.50;4.70;;;15.90;69.80;;;;;;10370732;28;20053;-58
2023/04/26 11:16:28;;;;;;;12.45;3.33;;;15.90;69.60;;;;;;10359621;28;20080;-58
2023/04/26 11:21:28;;;;;;;13.60;3.47;;;15.90;69.50;;;;;;10371926;28;20022;-57
2023/04/26 11:26:35;;;;;;;9.75;3.90;;;15.90;69.20;;;;;;10358007;28;20092;-58
2023/04/26 11:31:36;;;;;;;9.48;3.88;;;15.90;69.00;;;;;;10387631;28;20018;-58
2023/04/26 11:36:37;;;;;;;5.47;2.83;;;15.90;68.80;;;;;;10374325;28;20050;-58
2023/04/26 11:41:38;;;;;;;9.57;3.20;;;15.90;68.70;;;;;;10361859;28;20029;-57
2023/04/26 11:46:39;;;;;;;7.90;2.72;;;15.90;68.50;;;;;;10362362;28;20072;-58
2023/04/26 11:51:40;;;;;;;10.30;2.90;;;15.90;68.40;;;;;;10360340;28;20018;-58
2023/04/26 11:56:41;;;;;;;8.05;2.40;;;15.90;68.20;;;;;;10362338;28;20036;-58
2023/04/26 12:01:51;;;;;;;8.75;2.60;;;15.90;68.10;;;;;;10372044;28;20029;-58
2023/04/26 12:06:51;;;;;;;6.85;2.40;;;15.90;68.00;;;;;;10374901;28;21310;-57
2023/04/26 12:12:07;;;;;;;9.32;3.10;;;15.90;68.00;;;;;;10377216;28;20101;-58
2023/04/26 12:17:09;;;;;;;7.07;2.40;;;15.90;67.90;;;;;;10410529;28;20094;-57
2023/04/26 12:22:10;;;;;;;7.30;2.75;;;15.90;67.90;;;;;;10396808;28;20090;-58
2023/04/26 12:27:20;;;;;;;7.63;2.30;;;15.90;67.80;;;;;;10390428;28;20109;-58
2023/04/26 12:32:20;;;;;;;5.43;1.90;;;15.80;67.80;;;;;;10387471;28;20035;-57
2023/04/26 12:37:21;;;;;;;4.40;2.17;;;15.80;67.30;;;;;;10379792;28;20069;-57
2023/04/26 12:42:22;;;;;;;7.80;1.95;;;15.80;67.10;;;;;;10379279;28;20049;-57
2023/04/26 12:47:22;;;;;;;6.22;2.25;;;15.90;66.70;;;;;;10367142;28;20519;-55
2023/04/26 12:52:23;;;;;;;6.28;2.45;;;16.00;67.00;;;;;;10372675;28;20021;-57
2023/04/26 12:57:24;;;;;;;16.13;4.00;;;15.90;67.70;;;;;;10382330;28;20160;-56
2023/04/26 13:02:25;;;;;;;27.60;8.95;;;16.00;68.50;;;;;;10367074;28;20479;-57
2023/04/26 13:07:26;;;;;;;9.68;3.92;;;16.00;68.50;;;;;;10367331;28;20481;-58
2023/04/26 13:12:28;;;;;;;12.40;2.35;;;15.90;67.40;;;;;;10379882;28;20890;-58
2023/04/26 13:17:29;;;;;;;9.52;3.40;;;15.70;66.30;;;;;;10394503;28;20064;-58
2023/04/26 13:22:30;;;;;;;8.85;2.28;;;15.70;67.50;;;;;;10363457;28;20393;-57
2023/04/26 13:27:31;;;;;;;8.55;2.78;;;15.70;66.30;;;;;;10367849;28;20040;-58
2023/04/26 13:32:31;;;;;;;4.22;2.20;;;15.70;66.20;;;;;;10380307;28;20628;-57
2023/04/26 13:37:32;;;;;;;5.88;2.65;;;15.80;66.10;;;;;;10398303;28;20490;-58
2023/04/26 13:42:33;;;;;;;5.85;1.92;;;15.80;65.90;;;;;;10391545;28;20603;-58
2023/04/26 13:47:34;;;;;;;6.97;2.40;;;15.70;65.90;;;;;;10406526;28;20029;-58
2023/04/26 13:52:35;;;;;;;5.28;1.88;;;15.70;66.30;;;;;;10388799;28;20026;-57
2023/04/26 13:57:36;;;;;;;6.30;2.60;;;15.60;66.60;;;;;;10388596;28;20022;-58
2023/04/26 14:02:36;;;;;;;7.78;2.38;;;15.60;66.60;;;;;;10407382;28;20022;-58
2023/04/26 14:07:38;;;;;;;5.65;2.25;;;15.60;66.60;;;;;;10392422;28;20049;-57
2023/04/26 14:12:38;;;;;;;4.55;1.80;;;15.60;66.60;;;;;;10398513;28;20623;-57
2023/04/26 14:17:39;;;;;;;3.38;2.13;;;15.60;66.50;;;;;;10381587;28;20037;-58
2023/04/26 14:22:40;;;;;;;4.97;2.03;;;15.60;66.50;;;;;;10383579;28;20030;-58
2023/04/26 14:27:40;;;;;;;5.72;2.38;;;15.50;66.40;;;;;;10370939;28;20041;-57
2023/04/26 14:32:42;;;;;;;4.25;2.38;;;15.60;66.40;;;;;;10377204;28;20064;-58
2023/04/26 14:37:42;;;;;;;7.65;3.67;;;15.50;66.30;;;;;;10365625;28;20021;-57
2023/04/26 14:42:44;;;;;;;8.20;2.83;;;15.60;66.00;;;;;;10368374;28;20101;-55
2023/04/26 14:47:45;;;;;;;5.50;1.90;;;15.60;65.70;;;;;;10380068;28;20030;-57
2023/04/26 14:52:46;;;;;;;4.82;1.98;;;15.50;65.60;;;;;;10364953;28;20014;-56
2023/04/26 14:57:46;;;;;;;8.30;2.10;;;15.50;64.80;;;;;;10375759;28;20094;-57
2023/04/26 15:02:47;;;;;;;7.50;2.58;;;15.50;64.80;;;;;;10362848;28;20053;-56
2023/04/26 15:07:48;;;;;;;6.43;2.63;;;15.50;64.20;;;;;;10361337;28;20390;-57
2023/04/26 15:12:48;;;;;;;10.43;2.70;;;15.50;63.90;;;;;;10377232;28;20094;-57
2023/04/26 15:17:49;;;;;;;5.57;2.50;;;15.60;63.70;;;;;;10370672;28;20246;-57
2023/04/26 15:22:50;;;;;;;5.50;2.35;;;15.60;63.00;;;;;;10369594;28;20022;-57
2023/04/26 15:27:51;;;;;;;4.93;2.08;;;15.80;62.50;;;;;;10370832;28;20033;-56
2023/04/26 15:32:51;;;;;;;5.93;1.95;;;15.80;62.50;;;;;;10380829;28;20025;-55
2023/04/26 15:37:52;;;;;;;9.65;2.75;;;15.80;62.90;;;;;;10368884;28;20109;-56
2023/04/26 15:42:53;;;;;;;28.67;5.22;;;16.00;64.30;;;;;;10388048;28;20465;-54
2023/04/26 15:47:54;;;;;;;23.77;5.22;;;16.10;64.80;;;;;;10387212;28;20037;-55
2023/04/26 15:52:56;;;;;;;21.27;3.35;;;16.40;64.60;;;;;;10410440;28;20020;-58
2023/04/26 15:57:57;;;;;;;31.88;5.63;;;16.50;64.40;;;;;;10396184;28;20022;-56
2023/04/26 16:02:58;;;;;;;35.70;6.18;;;16.50;65.10;;;;;;10401476;28;20029;-57
2023/04/26 16:07:59;;;;;;;56.00;6.75;;;16.40;64.80;;;;;;10410074;28;20057;-56
2023/04/26 16:13:00;;;;;;;42.17;7.40;;;16.40;65.70;;;;;;10408796;28;20071;-55
2023/04/26 16:18:00;;;;;;;46.58;8.52;;;16.30;65.20;;;;;;10389564;28;20099;-53
2023/04/26 16:23:01;;;;;;;39.95;7.30;;;16.10;66.60;;;;;;10397544;28;20124;-56
2023/04/26 16:28:02;;;;;;;40.30;11.15;;;16.00;67.30;;;;;;10385800;28;20216;-55
2023/04/26 16:33:08;;;;;;;41.95;7.45;;;15.90;68.00;;;;;;10372480;28;20018;-53
2023/04/26 16:38:09;;;;;;;48.60;8.88;;;15.90;68.10;;;;;;10382007;28;20400;-56
2023/04/26 16:43:13;;;;;;;48.53;8.40;;;15.80;68.20;;;;;;10383704;28;20109;-55
2023/04/26 16:48:13;;;;;;;47.95;8.98;;;15.80;68.30;;;;;;10389638;28;20032;-56
2023/04/26 16:53:14;;;;;;;37.05;7.13;;;15.70;68.00;;;;;;10391223;28;20022;-57
2023/04/26 16:58:15;;;;;;;32.47;6.72;;;15.70;68.10;;;;;;10377616;28;20078;-56
2023/04/26 17:03:16;;;;;;;26.25;6.30;;;15.70;68.10;;;;;;10396116;28;20074;-57
2023/04/26 17:08:18;;;;;;;18.73;5.82;;;15.70;68.10;;;;;;10370376;28;20037;-57
2023/04/26 17:13:19;;;;;;;28.95;6.70;;;15.70;67.00;;;;;;10388081;28;20452;-57
2023/04/26 17:18:19;;;;;;;21.52;5.93;;;15.70;66.60;;;;;;10383663;28;20025;-57
2023/04/26 17:23:20;;;;;;;18.20;4.85;;;15.70;66.80;;;;;;10372470;28;20566;-57
2023/04/26 17:28:21;;;;;;;17.92;4.95;;;15.70;66.70;;;;;;10385042;28;20057;-57
2023/04/26 17:33:22;;;;;;;21.58;4.88;;;15.70;66.60;;;;;;10391885;28;20026;-56
2023/04/26 17:38:23;;;;;;;16.75;4.03;;;15.60;66.60;;;;;;10407198;28;20035;-56
2023/04/26 17:43:23;;;;;;;13.85;4.20;;;15.60;66.40;;;;;;10400162;28;20032;-56
2023/04/26 17:48:24;;;;;;;10.52;3.30;;;15.60;66.50;;;;;;10372389;28;20038;-57
2023/04/26 17:53:25;;;;;;;13.65;4.13;;;15.50;66.60;;;;;;10365456;28;20198;-56
2023/04/26 17:58:26;;;;;;;10.13;3.72;;;15.60;66.10;;;;;;10369757;28;20097;-57
2023/04/26 18:03:30;;;;;;;12.30;3.03;;;15.60;66.00;;;;;;10373135;28;20557;-56
2023/04/26 18:08:30;;;;;;;17.13;5.15;;;15.60;65.90;;;;;;10364251;28;20038;-56
2023/04/26 18:13:31;;;;;;;18.27;4.80;;;15.60;65.90;;;;;;10380610;28;20096;-56
2023/04/26 18:18:32;;;;;;;18.45;5.28;;;15.60;65.50;;;;;;10387296;28;20100;-56
2023/04/26 18:23:32;;;;;;;13.18;3.10;;;15.70;65.30;;;;;;10376888;28;20097;-57
2023/04/26 18:28:33;;;;;;;12.30;3.58;;;15.70;65.10;;;;;;10378654;28;20385;-57
2023/04/26 18:33:34;;;;;;;9.23;3.00;;;15.80;64.90;;;;;;10394251;28;20026;-56
2023/04/26 18:38:34;;;;;;;12.00;4.20;;;15.80;64.80;;;;;;10401198;28;20104;-55
2023/04/26 18:43:35;;;;;;;12.55;3.53;;;15.80;64.70;;;;;;10385334;28;20101;-56
2023/04/26 18:48:35;;;;;;;11.38;3.10;;;15.80;64.80;;;;;;10385431;28;20118;-55
2023/04/26 18:53:36;;;;;;;8.32;2.63;;;15.90;64.60;;;;;;10382178;28;20489;-57
2023/04/26 18:58:37;;;;;;;7.78;3.88;;;15.90;64.70;;;;;;10383158;28;20053;-56
2023/04/26 19:03:38;;;;;;;9.55;2.63;;;15.90;64.80;;;;;;10364040;28;20124;-57
2023/04/26 19:08:39;;;;;;;11.32;3.55;;;15.90;64.90;;;;;;10373356;28;20087;-58
2023/04/26 19:13:40;;;;;;;9.88;3.28;;;15.80;65.10;;;;;;10385176;28;20032;-57
2023/04/26 19:18:42;;;;;;;9.23;3.28;;;15.80;65.50;;;;;;10393314;28;20017;-56
2023/04/26 19:23:43;;;;;;;9.50;2.80;;;15.80;65.90;;;;;;10391102;28;20025;-56
2023/04/26 19:28:44;;;;;;;6.32;2.10;;;15.80;65.00;;;;;;10375781;28;20123;-56
2023/04/26 19:33:44;;;;;;;7.47;2.15;;;15.80;65.00;;;;;;10385845;28;20033;-56
2023/04/26 19:38:47;;;;;;;7.38;3.40;;;15.80;65.10;;;;;;10372145;28;20029;-56
2023/04/26 19:43:47;;;;;;;7.20;2.25;;;15.70;65.10;;;;;;10377221;28;20022;-55
2023/04/26 19:48:48;;;;;;;4.45;2.13;;;15.70;65.20;;;;;;10377112;28;20026;-57
2023/04/26 19:53:49;;;;;;;9.15;2.78;;;15.70;65.30;;;;;;10372147;28;20045;-56
2023/04/26 19:58:49;;;;;;;7.75;2.42;;;15.60;65.30;;;;;;10362826;28;20018;-57
2023/04/26 20:03:50;;;;;;;6.80;2.22;;;15.60;65.40;;;;;;10361998;28;20498;-56
2023/04/26 20:08:51;;;;;;;5.20;2.20;;;15.50;65.40;;;;;;10361881;28;20121;-57
2023/04/26 20:13:51;;;;;;;6.72;1.83;;;15.50;65.40;;;;;;10362193;28;20049;-56
2023/04/26 20:18:52;;;;;;;4.65;2.40;;;15.50;65.40;;;;;;10375484;28;20053;-56
2023/04/26 20:23:53;;;;;;;10.73;3.33;;;15.40;65.30;;;;;;10370171;28;20113;-57
2023/04/26 20:28:53;;;;;;;4.88;2.65;;;15.40;65.40;;;;;;10400073;28;20131;-57
2023/04/26 20:33:54;;;;;;;4.82;2.50;;;15.40;65.50;;;;;;10398297;28;20060;-56
2023/04/26 20:38:55;;;;;;;12.07;2.85;;;15.30;65.30;;;;;;10410719;28;20492;-55
2023/04/26 20:43:56;;;;;;;5.15;2.15;;;15.30;65.30;;;;;;10396448;28;20025;-56
2023/04/26 20:48:56;;;;;;;6.20;2.65;;;15.30;65.40;;;;;;10409346;28;20123;-57
2023/04/26 20:53:57;;;;;;;5.55;2.58;;;15.30;65.70;;;;;;10410119;28;20032;-56
2023/04/26 20:58:58;;;;;;;4.82;2.55;;;15.20;65.80;;;;;;10409956;28;20775;-55
2023/04/26 21:03:59;;;;;;;7.05;2.15;;;15.20;65.80;;;;;;10369969;28;20595;-57
2023/04/26 21:09:00;;;;;;;3.47;2.42;;;15.20;65.90;;;;;;10370594;28;20033;-56
2023/04/26 21:14:01;;;;;;;4.57;2.13;;;15.10;65.90;;;;;;10368696;28;20113;-56
2023/04/26 21:19:02;;;;;;;5.60;2.80;;;15.20;66.00;;;;;;10368305;28;20049;-56
2023/04/26 21:24:03;;;;;;;3.95;1.92;;;15.10;65.30;;;;;;10368632;28;20018;-57
2023/04/26 21:29:03;;;;;;;4.07;2.00;;;15.10;65.00;;;;;;10400432;28;20025;-56
2023/04/26 21:34:04;;;;;;;5.00;2.45;;;15.10;65.00;;;;;;10375867;28;20512;-57
2023/04/26 21:39:05;;;;;;;3.88;2.28;;;15.10;65.20;;;;;;10367653;28;20076;-57
2023/04/26 21:44:06;;;;;;;5.50;2.17;;;15.10;65.40;;;;;;10367134;28;20030;-56
2023/04/26 21:49:06;;;;;;;4.10;2.03;;;15.00;65.40;;;;;;10367413;28;20025;-57
2023/04/26 21:54:08;;;;;;;4.50;2.30;;;15.00;65.20;;;;;;10367105;28;20038;-57
2023/04/26 21:59:09;;;;;;;4.22;1.60;;;15.00;65.10;;;;;;10379803;28;20018;-56
2023/04/26 22:04:09;;;;;;;3.53;1.92;;;15.00;65.20;;;;;;10378489;28;20116;-55
2023/04/26 22:09:10;;;;;;;5.97;1.90;;;14.90;65.10;;;;;;10367188;28;20034;-56
2023/04/26 22:14:10;;;;;;;2.95;1.65;;;15.00;65.40;;;;;;10392188;28;20052;-57
2023/04/26 22:19:11;;;;;;;3.78;1.70;;;14.90;65.20;;;;;;10392178;28;20110;-56
2023/04/26 22:24:12;;;;;;;2.47;1.73;;;14.90;65.10;;;;;;10385919;28;20108;-57
2023/04/26 22:29:12;;;;;;;3.10;1.95;;;14.90;65.30;;;;;;10365488;28;20061;-57
2023/04/26 22:34:13;;;;;;;3.28;1.95;;;14.90;65.50;;;;;;10368653;28;20586;-56
2023/04/26 22:39:14;;;;;;;2.50;1.38;;;14.90;64.60;;;;;;10380218;28;20100;-57
2023/04/26 22:44:14;;;;;;;3.38;1.50;;;14.90;64.60;;;;;;10405704;28;20039;-57
2023/04/26 22:49:15;;;;;;;2.17;1.42;;;14.90;65.10;;;;;;10394070;28;20045;-57
2023/04/26 22:54:16;;;;;;;1.77;1.15;;;14.90;64.40;;;;;;10365298;28;20109;-57
2023/04/26 22:59:16;;;;;;;3.15;1.70;;;14.80;64.80;;;;;;10364545;28;20495;-57
2023/04/26 23:04:17;;;;;;;2.17;1.17;;;14.80;65.30;;;;;;10362820;28;20628;-55
2023/04/26 23:09:18;;;;;;;2.42;1.40;;;14.80;65.40;;;;;;10364382;28;20109;-56
2023/04/26 23:14:18;;;;;;;3.55;1.40;;;14.80;65.30;;;;;;10364384;28;20049;-55
2023/04/26 23:19:19;;;;;;;3.35;1.50;;;14.70;65.20;;;;;;10363893;28;20104;-56
2023/04/26 23:24:20;;;;;;;2.63;1.25;;;14.70;65.00;;;;;;10364026;28;20092;-57
2023/04/26 23:29:20;;;;;;;3.70;2.13;;;14.70;64.90;;;;;;10380830;28;20102;-56
2023/04/26 23:34:21;;;;;;;2.55;1.38;;;14.70;65.20;;;;;;10370072;28;20018;-57
2023/04/26 23:39:22;;;;;;;2.28;1.30;;;14.70;65.00;;;;;;10363864;28;20109;-56
2023/04/26 23:44:22;;;;;;;2.45;1.45;;;14.70;64.90;;;;;;10363711;28;20113;-56
2023/04/26 23:49:23;;;;;;;2.20;1.48;;;14.60;64.80;;;;;;10363715;28;20036;-58
2023/04/26 23:54:24;;;;;;;3.55;1.42;;;14.70;64.60;;;;;;10364502;28;20014;-55
2023/04/26 23:59:24;;;;;;;3.05;2.10;;;14.70;64.50;;;;;;10381529;28;20025;-55
